Time;durP1;ratioP1;P1;durP2;ratioP2;P2;SDS_P1;SDS_P2;PMS_P1;PMS_P2;Temp;Humidity;BMP_temperature;BMP_pressure;BME280_temperature;BME280_humidity;BME280_pressure;Samples;Min_cycle;Max_cycle;Signal;HPM_P1;HPM_P2
2022/02/06 00:01:37;;;;;;;12.43;7.43;;;7.60;99.90;;;;;;5081990;28;20229;-66
2022/02/06 00:04:06;;;;;;;13.70;5.60;;;7.60;99.90;;;;;;5081916;28;20632;-67
2022/02/06 00:06:35;;;;;;;25.50;11.20;;;7.50;99.90;;;;;;5086050;28;20253;-67
2022/02/06 00:09:03;;;;;;;11.60;6.27;;;7.50;99.90;;;;;;5078328;28;20278;-66
2022/02/06 00:11:32;;;;;;;14.67;5.40;;;7.50;99.90;;;;;;5082589;28;20261;-66
2022/02/06 00:14:00;;;;;;;10.60;4.10;;;7.50;99.90;;;;;;5067615;28;20223;-66
2022/02/06 00:16:31;;;;;;;15.63;3.53;;;7.50;99.90;;;;;;5085186;28;20204;-66
2022/02/06 00:18:59;;;;;;;7.50;3.20;;;7.50;99.90;;;;;;5075132;28;20293;-67
2022/02/06 00:21:31;;;;;;;9.43;2.87;;;7.60;99.90;;;;;;5080847;28;20203;-66
2022/02/06 00:24:01;;;;;;;9.73;3.20;;;7.60;99.90;;;;;;5080147;28;20204;-66
2022/02/06 00:26:39;;;;;;;8.37;3.20;;;7.60;99.90;;;;;;5068283;28;20191;-66
2022/02/06 00:29:21;;;;;;;10.30;3.03;;;7.60;99.90;;;;;;5087165;28;20198;-66
2022/02/06 00:31:56;;;;;;;11.43;2.77;;;7.60;99.90;;;;;;5089093;28;20271;-66
2022/02/06 00:40:04;;;;;;;7.37;3.03;;;7.60;99.90;;;;;;5086051;28;20203;-66
2022/02/06 00:42:33;;;;;;;11.03;3.00;;;7.60;99.90;;;;;;5070290;28;20211;-66
2022/02/06 00:45:01;;;;;;;5.53;2.67;;;7.60;99.90;;;;;;5075204;28;20306;-66
2022/02/06 00:47:31;;;;;;;6.33;2.90;;;7.60;99.90;;;;;;5090517;28;20196;-66
2022/02/06 00:49:59;;;;;;;8.93;2.87;;;7.60;99.90;;;;;;5061144;28;20263;-66
2022/02/06 00:52:34;;;;;;;8.10;3.10;;;7.60;99.90;;;;;;5043363;28;20568;-66
2022/02/06 00:55:02;;;;;;;14.00;3.93;;;7.70;99.90;;;;;;5063035;28;20219;-66
2022/02/06 00:57:31;;;;;;;13.93;3.40;;;7.70;99.90;;;;;;5081786;28;21098;-66
2022/02/06 00:59:59;;;;;;;9.90;2.80;;;7.70;99.90;;;;;;5091713;28;20192;-66
2022/02/06 01:02:29;;;;;;;13.30;2.70;;;7.70;99.90;;;;;;5072719;28;20257;-66
2022/02/06 01:04:59;;;;;;;8.80;3.10;;;7.70;99.90;;;;;;5062443;28;20187;-66
2022/02/06 01:07:27;;;;;;;14.40;2.77;;;7.80;99.90;;;;;;5067921;28;20243;-66
2022/02/06 01:09:56;;;;;;;6.10;2.90;;;7.80;99.90;;;;;;5082149;28;20722;-66
2022/02/06 01:12:27;;;;;;;8.40;2.50;;;7.80;99.90;;;;;;5078510;28;20225;-66
2022/02/06 01:15:05;;;;;;;5.03;2.77;;;7.80;99.90;;;;;;5070781;28;20290;-66
2022/02/06 01:17:37;;;;;;;7.70;2.33;;;7.80;99.90;;;;;;5102248;28;20191;-66
2022/02/06 01:20:15;;;;;;;6.67;3.07;;;7.90;99.90;;;;;;5082268;28;20199;-66
2022/02/06 01:22:51;;;;;;;5.20;2.47;;;7.90;99.90;;;;;;5063156;28;20285;-66
2022/02/06 01:25:25;;;;;;;8.57;2.90;;;7.90;99.90;;;;;;5083213;28;20841;-66
2022/02/06 01:27:58;;;;;;;9.37;2.40;;;7.90;99.90;;;;;;5093672;28;20745;-67
2022/02/06 01:30:34;;;;;;;7.67;2.80;;;7.90;99.90;;;;;;5085541;28;20203;-67
2022/02/06 01:33:04;;;;;;;6.47;2.50;;;7.90;99.90;;;;;;5060844;28;20322;-66
2022/02/06 01:35:40;;;;;;;13.27;2.83;;;7.80;99.90;;;;;;5076952;28;20613;-69
2022/02/06 01:38:21;;;;;;;7.27;2.30;;;7.70;99.90;;;;;;5100686;28;20299;-66
2022/02/06 01:41:02;;;;;;;4.93;2.60;;;7.70;99.90;;;;;;5085541;28;20616;-66
2022/02/06 01:43:38;;;;;;;8.87;2.50;;;7.80;99.90;;;;;;5070081;28;20286;-66
2022/02/06 01:46:29;;;;;;;6.83;3.10;;;7.70;99.90;;;;;;5066977;28;20195;-66
2022/02/06 02:00:31;;;;;;;7.10;2.30;;;7.40;99.90;;;;;;5012169;28;20201;-67
2022/02/06 02:03:10;;;;;;;11.50;2.83;;;7.30;99.90;;;;;;5066562;28;20196;-67
2022/02/06 02:06:12;;;;;;;10.27;3.13;;;7.20;99.90;;;;;;5082490;28;20230;-67
2022/02/06 02:11:58;;;;;;;9.47;2.77;;;7.10;99.90;;;;;;5066594;28;20295;-68
2022/02/06 02:14:49;;;;;;;10.73;3.23;;;7.10;99.90;;;;;;5073253;28;20191;-67
2022/02/06 02:17:36;;;;;;;8.50;2.90;;;7.10;99.90;;;;;;5071490;28;20205;-67
2022/02/06 02:23:25;;;;;;;7.67;2.77;;;7.00;99.90;;;;;;5062473;28;20788;-67
2022/02/06 02:32:07;;;;;;;9.10;2.93;;;7.00;99.90;;;;;;5089056;28;20236;-67
2022/02/06 02:46:06;;;;;;;10.20;2.60;;;7.30;99.90;;;;;;5055091;28;20199;-67
2022/02/06 02:48:35;;;;;;;9.67;2.83;;;7.30;99.90;;;;;;5084894;28;20226;-67
2022/02/06 02:51:07;;;;;;;5.67;2.47;;;7.40;99.90;;;;;;5093052;28;20199;-67
2022/02/06 02:53:39;;;;;;;6.93;3.00;;;7.50;99.90;;;;;;5086211;28;20227;-67
2022/02/06 02:56:24;;;;;;;11.17;2.63;;;7.50;99.90;;;;;;5071548;28;20194;-67
2022/02/06 02:59:02;;;;;;;4.00;2.43;;;7.60;99.90;;;;;;5083383;28;20760;-67
2022/02/06 03:01:35;;;;;;;5.60;2.57;;;7.50;99.90;;;;;;5065945;28;20579;-67
2022/02/06 03:04:04;;;;;;;7.47;2.97;;;7.50;99.90;;;;;;5060033;28;20199;-66
2022/02/06 03:06:33;;;;;;;5.73;2.50;;;7.50;99.90;;;;;;5076423;28;20226;-67
2022/02/06 03:09:02;;;;;;;10.87;2.60;;;7.40;99.90;;;;;;5077001;28;20673;-67
2022/02/06 03:11:32;;;;;;;4.87;2.60;;;7.40;99.90;;;;;;5082320;28;20195;-67
2022/02/06 03:14:05;;;;;;;8.83;2.73;;;7.40;99.90;;;;;;5085897;28;20823;-67
2022/02/06 03:16:37;;;;;;;12.43;2.83;;;7.30;99.90;;;;;;5075549;28;20190;-68
2022/02/06 03:19:09;;;;;;;8.77;2.87;;;7.30;99.90;;;;;;5077223;28;20231;-68
2022/02/06 03:21:39;;;;;;;9.23;3.00;;;7.30;99.90;;;;;;5080854;28;20222;-67
2022/02/06 03:24:21;;;;;;;6.37;2.90;;;7.20;99.90;;;;;;5081806;28;20235;-68
2022/02/06 03:26:53;;;;;;;5.17;2.80;;;7.20;99.90;;;;;;5079497;28;20989;-67
2022/02/06 03:29:25;;;;;;;16.33;3.53;;;7.20;99.90;;;;;;5054828;28;20265;-68
2022/02/06 03:31:54;;;;;;;7.20;2.90;;;7.20;99.90;;;;;;5062596;28;20208;-68
2022/02/06 03:34:23;;;;;;;15.10;3.27;;;7.20;99.90;;;;;;5076390;28;20195;-68
2022/02/06 03:36:51;;;;;;;8.07;3.40;;;7.20;99.90;;;;;;5081398;28;20283;-68
2022/02/06 03:39:22;;;;;;;9.63;3.40;;;7.20;99.90;;;;;;5067723;28;20725;-68
2022/02/06 03:42:06;;;;;;;9.53;3.40;;;7.20;99.90;;;;;;5076656;28;20208;-68
2022/02/06 03:44:41;;;;;;;7.40;2.97;;;7.30;99.90;;;;;;5064373;28;20203;-68
2022/02/06 03:47:14;;;;;;;7.40;3.00;;;7.20;99.90;;;;;;5076686;28;20680;-69
2022/02/06 03:49:53;;;;;;;7.80;3.33;;;7.30;99.90;;;;;;5083681;28;20228;-68
2022/02/06 03:52:26;;;;;;;6.47;3.03;;;7.30;99.90;;;;;;5081514;28;20256;-68
2022/02/06 03:54:55;;;;;;;5.23;3.07;;;7.30;99.90;;;;;;5081543;28;20701;-68
2022/02/06 03:57:25;;;;;;;11.87;3.47;;;7.30;99.90;;;;;;5084104;28;20191;-68
2022/02/06 03:59:53;;;;;;;9.10;3.20;;;7.30;99.90;;;;;;5074188;28;20216;-68
2022/02/06 04:02:22;;;;;;;11.33;3.50;;;7.30;99.90;;;;;;5040735;28;20253;-68
2022/02/06 04:04:50;;;;;;;8.37;4.17;;;7.30;99.90;;;;;;5064864;28;20837;-68
2022/02/06 04:07:18;;;;;;;12.03;3.87;;;7.30;99.90;;;;;;5082988;28;20235;-68
2022/02/06 04:09:51;;;;;;;15.27;4.00;;;7.20;99.90;;;;;;5079874;28;20184;-68
2022/02/06 04:12:21;;;;;;;9.40;3.70;;;7.30;99.90;;;;;;5075929;28;20191;-68
2022/02/06 04:14:56;;;;;;;10.93;3.63;;;7.20;99.90;;;;;;5057887;28;20656;-67
2022/02/06 04:17:28;;;;;;;11.70;3.93;;;7.20;99.90;;;;;;5081577;28;20246;-68
2022/02/06 04:19:58;;;;;;;15.87;4.53;;;7.20;99.90;;;;;;5065422;28;20208;-68
2022/02/06 04:22:27;;;;;;;11.47;4.50;;;7.20;99.90;;;;;;5080504;28;20580;-68
2022/02/06 04:24:55;;;;;;;12.83;4.17;;;7.10;99.90;;;;;;5077872;28;20282;-68
2022/02/06 04:27:24;;;;;;;10.00;4.07;;;7.10;99.90;;;;;;5061862;28;20658;-69
2022/02/06 04:29:54;;;;;;;10.30;4.10;;;7.10;99.90;;;;;;5060072;28;20188;-68
2022/02/06 04:32:23;;;;;;;14.93;4.50;;;7.10;99.90;;;;;;5060796;28;20443;-68
2022/02/06 04:34:53;;;;;;;16.67;5.13;;;7.10;99.90;;;;;;5074583;28;20685;-68
2022/02/06 04:37:28;;;;;;;13.07;4.57;;;7.10;99.90;;;;;;5060501;28;20179;-68
2022/02/06 04:43:09;;;;;;;10.30;4.60;;;7.20;99.90;;;;;;5060475;28;20442;-68
2022/02/06 04:46:18;;;;;;;16.00;4.63;;;7.20;99.90;;;;;;5083171;28;20203;-68
2022/02/06 05:16:56;;;;;;;10.70;4.07;;;7.50;99.90;;;;;;5040309;28;20281;-67
2022/02/06 05:19:54;;;;;;;8.50;4.47;;;7.60;99.90;;;;;;5080152;28;20219;-68
2022/02/06 05:22:35;;;;;;;11.67;4.70;;;7.60;99.90;;;;;;5074436;28;20222;-67
2022/02/06 05:25:38;;;;;;;13.27;4.67;;;7.60;99.90;;;;;;5076112;28;20196;-68
2022/02/06 05:28:25;;;;;;;11.73;4.53;;;7.60;99.90;;;;;;5082701;28;20248;-68
2022/02/06 05:31:00;;;;;;;10.83;4.03;;;7.60;99.90;;;;;;5058224;28;20187;-68
2022/02/06 05:33:28;;;;;;;13.63;4.30;;;7.70;99.90;;;;;;5081127;28;20665;-68
2022/02/06 05:35:58;;;;;;;12.10;4.60;;;7.70;99.90;;;;;;5065718;28;20223;-68
2022/02/06 05:38:28;;;;;;;14.43;4.70;;;7.60;99.90;;;;;;5083258;28;20231;-67
2022/02/06 05:40:56;;;;;;;10.77;4.07;;;7.70;99.90;;;;;;5061815;28;20212;-68
2022/02/06 05:43:25;;;;;;;12.80;4.13;;;7.70;99.90;;;;;;5064630;28;20688;-68
2022/02/06 05:45:53;;;;;;;12.07;4.33;;;7.70;99.90;;;;;;5064155;28;20674;-67
2022/02/06 05:48:21;;;;;;;14.57;4.33;;;7.70;99.90;;;;;;5061128;28;20238;-68
2022/02/06 05:50:51;;;;;;;17.60;4.33;;;7.80;99.90;;;;;;5079206;28;20636;-68
2022/02/06 05:53:22;;;;;;;14.50;3.87;;;7.80;99.90;;;;;;5053842;28;20184;-68
2022/02/06 05:55:50;;;;;;;11.67;3.77;;;7.80;99.90;;;;;;5075242;28;20229;-68
2022/02/06 05:58:18;;;;;;;13.50;3.80;;;7.80;99.90;;;;;;5078071;28;20672;-68
2022/02/06 06:00:48;;;;;;;13.33;3.93;;;7.80;99.90;;;;;;5072264;28;20286;-68
2022/02/06 06:03:22;;;;;;;11.63;3.83;;;7.90;99.90;;;;;;5071024;28;20222;-68
2022/02/06 06:05:51;;;;;;;14.43;3.90;;;7.80;99.90;;;;;;5064383;28;20775;-68
2022/02/06 06:08:21;;;;;;;17.03;3.70;;;7.90;99.90;;;;;;5081416;28;20278;-67
2022/02/06 06:10:49;;;;;;;12.83;4.17;;;7.90;99.90;;;;;;5074660;28;20207;-69
2022/02/06 06:13:18;;;;;;;10.43;3.80;;;7.90;99.90;;;;;;5084000;28;20199;-68
2022/02/06 06:15:47;;;;;;;13.30;4.10;;;7.80;99.90;;;;;;5077104;28;20199;-69
2022/02/06 06:18:15;;;;;;;18.37;3.87;;;7.90;99.90;;;;;;5072811;28;20200;-68
2022/02/06 06:20:46;;;;;;;6.70;3.27;;;7.80;99.90;;;;;;5081449;28;20273;-68
2022/02/06 06:23:14;;;;;;;8.20;2.97;;;7.90;99.90;;;;;;5081928;28;20203;-69
2022/02/06 06:25:47;;;;;;;13.33;3.77;;;7.90;99.90;;;;;;5074990;28;21224;-69
2022/02/06 06:28:22;;;;;;;13.93;3.90;;;7.90;99.90;;;;;;5063493;28;20226;-68
2022/02/06 06:30:54;;;;;;;10.13;3.37;;;7.90;99.90;;;;;;5058402;28;20195;-69
2022/02/06 06:33:23;;;;;;;13.60;3.77;;;7.90;99.90;;;;;;5083762;28;20275;-69
2022/02/06 06:35:55;;;;;;;13.60;3.43;;;7.90;99.90;;;;;;5060464;28;20248;-69
2022/02/06 06:38:24;;;;;;;9.67;3.73;;;7.90;99.90;;;;;;5080997;28;20200;-68
2022/02/06 06:40:55;;;;;;;20.53;3.60;;;7.90;99.90;;;;;;5078191;28;20224;-69
2022/02/06 06:43:24;;;;;;;10.23;3.40;;;7.90;99.90;;;;;;5076271;28;20196;-69
2022/02/06 06:45:53;;;;;;;13.53;3.40;;;7.90;99.90;;;;;;5075244;28;20196;-69
2022/02/06 06:48:24;;;;;;;8.57;3.27;;;7.90;99.90;;;;;;5079567;28;20243;-68
2022/02/06 06:50:53;;;;;;;9.30;3.10;;;7.90;99.90;;;;;;5081401;28;20191;-68
2022/02/06 06:53:22;;;;;;;18.47;3.57;;;7.90;99.90;;;;;;5061919;28;20256;-69
2022/02/06 06:55:57;;;;;;;13.57;3.77;;;8.00;99.90;;;;;;5075463;28;20223;-68
2022/02/06 06:58:29;;;;;;;14.30;3.23;;;7.90;99.90;;;;;;5078957;28;20221;-68
2022/02/06 07:01:09;;;;;;;6.50;3.43;;;7.90;99.90;;;;;;5059563;28;20212;-68
2022/02/06 07:03:38;;;;;;;9.67;3.83;;;7.90;99.90;;;;;;5069232;28;20206;-68
2022/02/06 07:06:06;;;;;;;9.53;3.30;;;7.90;99.90;;;;;;5082552;28;20294;-68
2022/02/06 07:08:34;;;;;;;15.27;3.93;;;8.00;99.90;;;;;;5087337;28;20276;-69
2022/02/06 07:11:03;;;;;;;13.00;3.70;;;8.00;99.90;;;;;;5060734;28;20246;-69
2022/02/06 07:13:33;;;;;;;6.90;3.67;;;8.00;99.90;;;;;;5067490;28;20192;-70
2022/02/06 07:16:01;;;;;;;9.90;3.60;;;8.00;99.90;;;;;;5059249;28;20282;-69
2022/02/06 07:18:30;;;;;;;8.93;3.80;;;7.90;99.90;;;;;;5081913;28;21205;-69
2022/02/06 07:20:58;;;;;;;11.33;3.90;;;7.90;99.90;;;;;;5079525;28;20623;-69
2022/02/06 07:23:26;;;;;;;16.00;3.67;;;7.90;99.90;;;;;;5080456;28;20386;-69
2022/02/06 07:26:00;;;;;;;12.37;3.53;;;7.90;99.90;;;;;;5080941;28;20654;-69
2022/02/06 07:28:30;;;;;;;9.03;3.60;;;7.90;99.90;;;;;;5041380;28;20242;-69
2022/02/06 07:31:00;;;;;;;11.30;3.50;;;7.90;99.90;;;;;;5078359;28;20225;-68
2022/02/06 07:33:28;;;;;;;8.83;3.67;;;7.90;99.90;;;;;;5083305;28;20203;-69
2022/02/06 07:35:56;;;;;;;13.70;3.53;;;7.90;99.90;;;;;;5082322;28;20313;-69
2022/02/06 07:38:25;;;;;;;10.90;3.30;;;7.90;99.90;;;;;;5065352;28;20227;-69
2022/02/06 07:40:53;;;;;;;9.30;3.20;;;8.00;99.90;;;;;;5078781;28;20266;-69
2022/02/06 07:43:22;;;;;;;11.70;3.80;;;8.00;99.90;;;;;;5065272;28;20227;-68
2022/02/06 07:45:51;;;;;;;11.23;3.50;;;8.00;99.90;;;;;;5080703;28;20200;-69
2022/02/06 07:48:21;;;;;;;10.90;3.20;;;8.00;99.90;;;;;;5065428;28;20226;-68
2022/02/06 07:50:49;;;;;;;5.20;3.07;;;8.00;99.90;;;;;;5062123;28;20200;-68
2022/02/06 07:53:18;;;;;;;10.33;2.87;;;8.00;99.90;;;;;;5076039;28;20543;-68
2022/02/06 07:55:48;;;;;;;10.43;2.90;;;8.10;99.90;;;;;;5081064;28;20287;-69
2022/02/06 07:58:17;;;;;;;7.40;2.67;;;8.00;99.90;;;;;;5085660;28;20236;-69
2022/02/06 08:00:45;;;;;;;10.47;2.87;;;8.10;99.90;;;;;;5073557;28;20634;-68
2022/02/06 08:03:14;;;;;;;9.37;3.10;;;8.10;99.90;;;;;;5063175;28;20315;-69
2022/02/06 08:05:44;;;;;;;9.17;3.00;;;8.10;99.90;;;;;;5075727;28;20283;-68
2022/02/06 08:08:14;;;;;;;5.80;2.80;;;8.00;99.90;;;;;;5064681;28;20222;-68
2022/02/06 08:10:43;;;;;;;4.87;2.73;;;8.10;99.90;;;;;;5064210;28;20287;-68
2022/02/06 08:13:20;;;;;;;8.23;2.60;;;8.10;99.90;;;;;;5078870;28;20661;-68
2022/02/06 08:15:49;;;;;;;8.43;2.83;;;8.10;99.90;;;;;;5075671;28;20607;-68
2022/02/06 08:18:17;;;;;;;5.23;2.87;;;8.10;99.90;;;;;;5073847;28;20199;-68
2022/02/06 08:20:47;;;;;;;6.43;3.20;;;8.10;99.90;;;;;;5058465;28;20665;-68
2022/02/06 08:23:15;;;;;;;11.80;3.80;;;8.00;99.90;;;;;;5074091;28;20750;-69
2022/02/06 08:25:44;;;;;;;7.43;3.57;;;8.10;99.90;;;;;;5073054;28;20211;-68
2022/02/06 08:28:12;;;;;;;10.73;3.57;;;8.10;99.90;;;;;;5072359;28;20282;-68
2022/02/06 08:30:42;;;;;;;12.57;5.67;;;8.10;99.90;;;;;;5075818;28;20273;-68
2022/02/06 08:33:10;;;;;;;15.80;8.20;;;8.10;99.90;;;;;;5074572;28;20288;-69
2022/02/06 08:35:38;;;;;;;12.77;5.40;;;8.10;99.90;;;;;;5076176;28;20191;-68
2022/02/06 08:38:10;;;;;;;12.13;7.07;;;8.10;99.90;;;;;;5075577;28;20261;-68
2022/02/06 08:40:38;;;;;;;11.73;3.27;;;8.10;99.90;;;;;;5074155;28;21878;-69
2022/02/06 08:43:08;;;;;;;8.77;3.50;;;8.10;99.90;;;;;;5073407;28;20226;-68
2022/02/06 08:45:38;;;;;;;6.07;3.13;;;8.10;99.90;;;;;;5077616;28;20611;-68
2022/02/06 08:48:06;;;;;;;5.60;3.03;;;8.10;99.90;;;;;;5073568;28;20357;-71
2022/02/06 08:50:35;;;;;;;8.03;3.03;;;8.10;99.90;;;;;;5054938;28;20195;-69
2022/02/06 08:53:03;;;;;;;11.77;4.00;;;8.10;99.90;;;;;;5077457;28;20538;-68
2022/02/06 08:55:33;;;;;;;10.90;3.10;;;8.10;99.90;;;;;;5053653;28;21057;-69
2022/02/06 08:58:01;;;;;;;5.73;3.10;;;8.10;99.90;;;;;;5059535;28;20222;-69
2022/02/06 09:00:30;;;;;;;9.90;3.57;;;8.10;99.90;;;;;;5071163;28;20269;-69
2022/02/06 09:02:58;;;;;;;10.93;3.43;;;8.10;99.90;;;;;;5058290;28;20239;-69
2022/02/06 09:05:28;;;;;;;9.97;2.60;;;8.10;99.90;;;;;;5078927;28;20268;-69
2022/02/06 09:07:57;;;;;;;9.30;3.00;;;8.20;99.90;;;;;;5043536;28;20195;-69
2022/02/06 09:10:26;;;;;;;11.47;2.87;;;8.20;99.90;;;;;;5073088;28;20204;-69
2022/02/06 09:12:55;;;;;;;8.50;3.00;;;8.20;99.90;;;;;;5074958;28;20275;-69
2022/02/06 09:15:24;;;;;;;9.00;2.40;;;8.20;99.90;;;;;;5076463;28;20723;-69
2022/02/06 09:17:53;;;;;;;10.20;2.50;;;8.30;99.90;;;;;;5060392;28;20211;-70
2022/02/06 09:20:24;;;;;;;6.90;3.10;;;8.30;99.90;;;;;;5076218;28;20734;-69
2022/02/06 09:22:52;;;;;;;7.20;2.97;;;8.20;99.90;;;;;;5056987;28;20235;-69
2022/02/06 09:25:21;;;;;;;12.27;3.60;;;8.20;99.90;;;;;;5071548;28;20195;-68
2022/02/06 09:27:49;;;;;;;11.27;2.67;;;8.30;99.90;;;;;;5033590;28;20735;-68
2022/02/06 09:30:25;;;;;;;10.00;2.50;;;8.30;99.90;;;;;;5077246;28;20619;-68
2022/02/06 09:35:22;;;;;;;7.60;2.50;;;8.30;99.90;;;;;;5070636;28;20203;-68
2022/02/06 09:37:52;;;;;;;9.37;2.77;;;8.30;99.90;;;;;;5050458;28;20200;-68
2022/02/06 09:40:23;;;;;;;6.67;2.27;;;8.30;99.90;;;;;;5080424;28;20203;-71
2022/02/06 09:42:53;;;;;;;9.17;2.90;;;8.30;99.90;;;;;;5080216;28;20294;-69
2022/02/06 09:45:28;;;;;;;6.57;3.23;;;8.30;99.90;;;;;;5054586;28;20195;-68
2022/02/06 09:47:58;;;;;;;9.03;3.23;;;8.30;99.90;;;;;;5062791;28;20684;-69
2022/02/06 09:50:27;;;;;;;3.43;2.80;;;8.30;99.90;;;;;;5063638;28;20221;-69
2022/02/06 09:52:55;;;;;;;11.73;3.00;;;8.40;99.90;;;;;;5074913;28;20187;-68
2022/02/06 09:55:24;;;;;;;8.83;3.30;;;8.40;99.90;;;;;;5076988;28;20268;-68
2022/02/06 09:57:55;;;;;;;6.07;3.97;;;8.40;99.90;;;;;;5059346;28;20195;-68
2022/02/06 10:00:28;;;;;;;12.73;5.90;;;8.40;99.90;;;;;;5056995;28;20196;-68
2022/02/06 10:03:03;;;;;;;5.13;3.63;;;8.40;99.90;;;;;;5063503;28;20211;-69
2022/02/06 10:05:35;;;;;;;6.53;3.27;;;8.40;99.90;;;;;;5086854;28;20338;-69
2022/02/06 10:08:12;;;;;;;10.50;3.57;;;8.50;99.90;;;;;;5080342;28;20209;-69
2022/02/06 10:10:49;;;;;;;6.40;4.83;;;8.50;99.90;;;;;;5050749;28;20909;-69
2022/02/06 10:13:18;;;;;;;21.87;11.60;;;8.60;99.90;;;;;;5076721;28;20738;-69
2022/02/06 10:15:48;;;;;;;16.57;9.17;;;8.60;99.90;;;;;;5077305;28;20310;-70
2022/02/06 10:18:16;;;;;;;11.50;6.33;;;8.60;99.90;;;;;;5081677;28;20207;-70
2022/02/06 10:20:47;;;;;;;12.07;6.87;;;8.60;99.90;;;;;;5057046;28;20411;-69
2022/02/06 10:23:23;;;;;;;25.57;13.37;;;8.70;99.90;;;;;;5059388;28;20568;-69
2022/02/06 10:26:05;;;;;;;19.67;10.40;;;8.70;99.90;;;;;;5082462;28;20229;-69
2022/02/06 10:28:37;;;;;;;12.13;6.50;;;8.70;99.90;;;;;;5073649;28;20203;-69
2022/02/06 10:31:09;;;;;;;10.73;6.20;;;8.80;99.90;;;;;;5083342;28;20196;-69
2022/02/06 10:33:47;;;;;;;14.90;7.37;;;8.80;99.90;;;;;;5063753;28;20661;-69
2022/02/06 10:36:17;;;;;;;19.80;12.13;;;8.80;99.90;;;;;;5069345;28;20191;-68
2022/02/06 10:38:47;;;;;;;12.47;7.37;;;8.80;99.90;;;;;;5066425;28;20722;-69
2022/02/06 10:41:17;;;;;;;11.80;6.87;;;8.80;99.90;;;;;;5075422;28;20577;-69
2022/02/06 10:43:56;;;;;;;9.97;4.93;;;8.90;99.90;;;;;;5080146;28;20234;-70
2022/02/06 10:46:28;;;;;;;10.90;7.37;;;9.00;99.90;;;;;;5072266;28;20206;-71
2022/02/06 10:49:00;;;;;;;12.53;6.20;;;9.00;99.90;;;;;;5060027;28;20251;-68
2022/02/06 10:51:40;;;;;;;4.30;2.57;;;9.10;99.90;;;;;;5080774;28;20565;-71
2022/02/06 10:54:11;;;;;;;6.53;3.40;;;9.10;99.90;;;;;;5086499;28;20199;-69
2022/02/06 10:57:02;;;;;;;5.90;1.87;;;9.10;99.90;;;;;;5070037;28;20650;-71
2022/02/06 10:59:45;;;;;;;5.63;2.00;;;9.20;99.90;;;;;;5075928;28;20204;-69
2022/02/06 11:02:23;;;;;;;6.87;2.33;;;9.20;99.90;;;;;;5073985;28;20199;-68
2022/02/06 11:05:06;;;;;;;5.87;2.03;;;9.20;99.90;;;;;;5080332;28;20266;-69
2022/02/06 11:07:36;;;;;;;8.03;2.63;;;9.30;99.90;;;;;;5079823;28;20195;-68
2022/02/06 11:10:12;;;;;;;7.43;2.43;;;9.30;99.90;;;;;;5079422;28;20208;-68
2022/02/06 11:12:42;;;;;;;8.90;3.70;;;9.40;99.90;;;;;;5080666;28;20230;-68
2022/02/06 11:15:24;;;;;;;15.13;2.60;;;9.40;99.90;;;;;;5076231;28;20239;-69
2022/02/06 11:18:12;;;;;;;11.83;2.20;;;9.40;99.90;;;;;;5071954;28;20846;-69
2022/02/06 11:20:53;;;;;;;12.60;2.70;;;9.50;99.90;;;;;;5079238;28;20227;-69
2022/02/06 11:23:22;;;;;;;6.27;2.13;;;9.60;99.90;;;;;;5055696;28;20208;-68
2022/02/06 11:25:52;;;;;;;10.13;2.60;;;9.60;99.90;;;;;;5078722;28;20200;-68
2022/02/06 11:28:21;;;;;;;11.80;3.33;;;9.70;99.90;;;;;;5078231;28;20758;-69
2022/02/06 11:30:50;;;;;;;17.57;2.90;;;9.80;99.90;;;;;;5081583;28;20234;-68
2022/02/06 11:33:21;;;;;;;15.77;2.97;;;9.80;99.90;;;;;;5083093;28;20187;-68
2022/02/06 11:35:56;;;;;;;11.57;2.80;;;9.80;99.90;;;;;;5083988;28;20582;-68
2022/02/06 11:44:53;;;;;;;18.07;3.10;;;9.70;99.90;;;;;;5076053;28;20319;-68
2022/02/06 11:47:25;;;;;;;7.13;2.40;;;9.70;99.90;;;;;;5073437;28;20230;-68
2022/02/06 11:49:59;;;;;;;7.00;2.30;;;9.60;99.90;;;;;;5080004;28;20288;-70
2022/02/06 11:52:48;;;;;;;10.07;2.30;;;9.50;99.90;;;;;;5073008;28;20511;-70
2022/02/06 11:55:36;;;;;;;6.37;2.13;;;9.30;99.90;;;;;;5077453;28;20218;-70
2022/02/06 11:58:26;;;;;;;7.27;1.87;;;9.20;99.90;;;;;;5060695;28;20196;-70
2022/02/06 12:01:22;;;;;;;6.10;1.53;;;9.00;99.90;;;;;;5079834;28;20281;-69
2022/02/06 12:03:57;;;;;;;7.20;1.60;;;8.90;99.90;;;;;;5078034;28;20344;-69
2022/02/06 12:06:30;;;;;;;2.83;1.40;;;8.80;99.90;;;;;;5078015;28;20214;-68
2022/02/06 12:09:21;;;;;;;3.40;1.50;;;8.70;99.90;;;;;;5077995;28;20252;-69
2022/02/06 12:12:17;;;;;;;2.57;1.80;;;8.70;99.90;;;;;;5074776;28;20695;-69
2022/02/06 12:14:53;;;;;;;5.50;2.10;;;8.70;99.90;;;;;;5035664;28;20830;-71
2022/02/06 12:17:35;;;;;;;4.13;1.43;;;8.60;99.90;;;;;;5081732;28;20207;-69
2022/02/06 12:20:10;;;;;;;3.00;1.50;;;8.50;99.90;;;;;;5084793;28;20203;-69
2022/02/06 12:22:42;;;;;;;3.30;1.37;;;8.30;99.90;;;;;;5063308;28;20187;-69
2022/02/06 12:25:36;;;;;;;1.63;1.40;;;8.20;99.90;;;;;;5054869;28;20223;-69
2022/02/06 12:28:28;;;;;;;4.30;1.63;;;8.10;99.90;;;;;;5078811;28;20204;-69
2022/02/06 12:30:58;;;;;;;4.50;1.90;;;8.10;99.90;;;;;;5055354;28;20260;-69
2022/02/06 12:33:33;;;;;;;4.97;1.73;;;8.00;99.90;;;;;;5053113;28;20209;-69
2022/02/06 12:38:50;;;;;;;2.73;2.07;;;7.90;99.90;;;;;;5074628;28;20227;-69
2022/02/06 12:41:22;;;;;;;3.30;2.10;;;7.90;99.90;;;;;;5061905;28;20196;-69
2022/02/06 12:43:54;;;;;;;4.83;2.43;;;7.80;99.90;;;;;;5074927;28;20231;-68
2022/02/06 12:46:25;;;;;;;2.10;1.90;;;7.80;99.90;;;;;;5074695;28;20200;-69
2022/02/06 12:49:00;;;;;;;3.80;2.00;;;7.80;99.90;;;;;;5041213;28;20236;-69
2022/02/06 12:51:29;;;;;;;3.20;2.50;;;7.80;99.90;;;;;;5074668;28;20251;-69
2022/02/06 12:54:03;;;;;;;6.63;2.43;;;7.80;99.90;;;;;;5074953;28;20200;-69
2022/02/06 12:56:33;;;;;;;3.80;3.50;;;7.80;99.90;;;;;;5077927;28;20210;-69
2022/02/06 12:59:03;;;;;;;3.60;1.70;;;7.90;99.90;;;;;;5057746;28;20188;-68
2022/02/06 13:01:38;;;;;;;3.13;1.60;;;7.90;99.90;;;;;;5075607;28;20206;-68
2022/02/06 13:04:09;;;;;;;2.90;2.30;;;8.00;99.90;;;;;;5072298;28;20218;-68
2022/02/06 13:06:39;;;;;;;2.30;2.03;;;8.10;99.90;;;;;;5074363;28;20196;-69
2022/02/06 13:09:20;;;;;;;3.60;2.73;;;8.10;99.90;;;;;;5079384;28;20228;-69
2022/02/06 13:11:55;;;;;;;3.00;1.80;;;8.10;99.90;;;;;;5078439;28;20196;-69
2022/02/06 13:14:43;;;;;;;5.13;2.60;;;8.10;99.90;;;;;;5078164;28;20231;-69
2022/02/06 13:17:22;;;;;;;8.63;2.67;;;8.10;99.90;;;;;;5060972;28;20183;-68
2022/02/06 13:20:03;;;;;;;8.03;2.20;;;8.10;99.90;;;;;;5077478;28;20214;-68
2022/02/06 13:22:47;;;;;;;11.30;3.30;;;8.10;99.90;;;;;;5079284;28;20693;-68
2022/02/06 13:25:41;;;;;;;7.87;3.63;;;8.20;99.90;;;;;;5083744;28;20222;-69
2022/02/06 13:28:27;;;;;;;11.27;2.50;;;8.20;99.90;;;;;;5075162;28;20260;-69
2022/02/06 13:33:54;;;;;;;11.50;2.80;;;8.30;99.90;;;;;;5059296;28;20566;-69
2022/02/06 13:36:34;;;;;;;15.07;3.70;;;8.30;99.90;;;;;;5075696;28;20234;-69
2022/02/06 13:39:08;;;;;;;14.57;3.77;;;8.30;99.90;;;;;;5076791;28;20204;-68
2022/02/06 13:41:38;;;;;;;15.27;4.23;;;8.40;99.90;;;;;;5079304;28;20676;-69
2022/02/06 13:44:13;;;;;;;15.33;4.30;;;8.50;99.90;;;;;;5076835;28;20208;-69
2022/02/06 13:46:43;;;;;;;16.57;4.27;;;8.60;99.90;;;;;;5082779;28;20214;-68
2022/02/06 13:49:11;;;;;;;22.07;3.60;;;8.70;99.90;;;;;;5076202;28;20252;-69
2022/02/06 13:51:44;;;;;;;16.00;3.80;;;8.80;99.90;;;;;;5079789;28;20196;-68
2022/02/06 13:54:14;;;;;;;16.20;3.53;;;9.00;99.90;;;;;;5075517;28;20211;-68
2022/02/06 13:56:46;;;;;;;18.57;3.63;;;9.20;99.90;;;;;;5078088;28;20196;-68
2022/02/06 13:59:19;;;;;;;15.43;3.37;;;9.30;99.90;;;;;;5077922;28;20742;-68
2022/02/06 14:01:51;;;;;;;11.43;3.10;;;9.50;99.90;;;;;;5077283;28;20268;-69
2022/02/06 14:04:24;;;;;;;8.07;3.03;;;9.60;99.90;;;;;;5078611;28;20568;-69
2022/02/06 14:07:03;;;;;;;12.27;3.37;;;9.60;99.90;;;;;;5061949;28;20187;-68
2022/02/06 14:09:44;;;;;;;10.47;3.27;;;9.60;99.90;;;;;;5062707;28;20708;-68
2022/02/06 14:12:16;;;;;;;11.13;2.90;;;9.60;99.90;;;;;;5081904;28;20677;-68
2022/02/06 14:14:52;;;;;;;10.87;2.77;;;9.70;99.90;;;;;;5079818;28;20195;-69
2022/02/06 14:17:38;;;;;;;10.90;2.83;;;9.80;99.90;;;;;;5060023;28;20307;-68
2022/02/06 14:20:12;;;;;;;8.70;2.70;;;9.80;99.90;;;;;;5075176;28;20199;-69
2022/02/06 14:22:46;;;;;;;8.03;2.90;;;9.80;99.90;;;;;;5061269;28;20269;-68
2022/02/06 14:25:25;;;;;;;8.23;2.53;;;9.70;99.90;;;;;;5075289;28;21030;-69
2022/02/06 14:27:54;;;;;;;9.93;3.10;;;9.70;99.90;;;;;;5059879;28;20274;-68
2022/02/06 14:30:27;;;;;;;9.10;2.80;;;9.60;99.90;;;;;;5076323;28;20265;-69
2022/02/06 14:33:02;;;;;;;5.73;2.93;;;9.70;99.90;;;;;;5077685;28;21182;-68
2022/02/06 14:35:47;;;;;;;4.90;3.10;;;9.70;99.90;;;;;;5078618;28;20647;-69
2022/02/06 14:38:23;;;;;;;9.97;3.43;;;9.70;99.90;;;;;;5063010;28;20660;-69
2022/02/06 14:41:04;;;;;;;11.43;3.10;;;9.70;99.90;;;;;;5071244;28;20232;-68
2022/02/06 14:43:39;;;;;;;5.83;2.70;;;9.70;99.90;;;;;;5076176;28;20195;-68
2022/02/06 14:46:09;;;;;;;10.73;3.53;;;9.70;99.90;;;;;;5080342;28;20215;-69
2022/02/06 14:48:38;;;;;;;9.43;3.10;;;9.80;99.90;;;;;;5055525;28;20609;-68
2022/02/06 14:51:12;;;;;;;10.63;2.77;;;9.80;99.90;;;;;;5062220;28;20218;-68